Lincoln City, OR (97367)

6:49 PM PDT on September 16, 2014 (GMT -0700)
MAP ROSE LODGE (P395) OR PSD | Change Station
CLOSE
Current Station
Personal Weather Station
Location: Otis, OR
Elevation: 173 ft
Nearby Weather Stations

Elev 173 ft 45.02 °N, 123.86 °W | Updated 49 minutes ago

Partly Cloudy
Partly Cloudy
68 °F
Feels Like 68 °F
N
2
Wind Variable Wind from South
Gusts 0.0 mph

Today
High -- | Low -- °F
--% Chance of Precip.
Yesterday
High -- | Low -- °F
Precip. -- in
6:55 AM 7:24 PM
Last Quarter, 40% visible
Pressure 29.92 in
Visibility 5.0 miles
Clouds Clear
Dew Point 54 °F
Humidity 61%
Rainfall -999.00 in
Snow Depth 0 in , 0 in , 0 in
UV 0 out of 12
Pollen 2.20 out of 12
Air Quality Not available.
Flu Activity Not available.
METAR KONP 170135Z AUTO 22004KT 5SM HZ CLR 16/13 A2992 RMK AO2

More Conditions Fewer Conditions

Pressure 29.92 in
Visibility 5.0 miles
Clouds Clear
Dew Point 54 °F
Humidity 61%
Rainfall -999.00 in
Snow Depth 0 in , 0 in , 0 in
UV 0 out of 12
Pollen 2.20 out of 12
Air Quality Not available.
Flu Activity Not available.
METAR KONP 170135Z AUTO 22004KT 5SM HZ CLR 16/13 A2992 RMK AO2

More Conditions Fewer Conditions

10-Day Weather Forecast

Almanac

Astronomy

Sep. 16, 2014 Rise Set
Actual Time 6:55 AM PDT 7:24 PM PDT
Civil Twilight 6:26 AM PDT 7:53 PM PDT
Nautical Twilight 5:51 AM PDT 8:28 PM PDT
Astronomical Twilight 5:15 AM PDT 9:04 PM PDT
Moon No Moon Rise 3:04 PM PDT (9/16)
Length of Visible Light 13h 27m
Length of Day
12h 28m
Tomorrow will be 3m 6s shorter.
Last Quarter, 40% of the Moon is Illuminated
Today
Last Quarter
Sep 24
New
Oct 1
First Quarter
Oct 8
Full
Oct 15
Last Quarter

Today's Extremes

State Highs State Lows

Community

WunderPhotos

Upload Photos

1,753,945 photos uploaded!

Nearby

Snow Depth

Station Depth Elevation
Daly Lake 0 in 3600 ft
Strawberry 0 in 5760 ft
Sevenmile Marsh 0 in 6200 ft
Mud Ridge 0 in 3800 ft
Holland Meadows 0 in 4900 ft

Earthquake Activity

City Distance Mag. Time & Date
Morton, Washington 121 miles 3.0 5:43 AM PDT
2014-09-16
Minimum magnitude displayed is 2.5.

Coastal Water Temperatures

Place Temperature
South Beach, OR 55.0 °F
Charleston, OR 52.0 °F

Nearby Weather Stations